Time;durP1;ratioP1;P1;durP2;ratioP2;P2;SDS_P1;SDS_P2;PMS_P1;PMS_P2;Temp;Humidity;BMP_temperature;BMP_pressure;BME280_temperature;BME280_humidity;BME280_pressure;Samples;Min_cycle;Max_cycle;Signal;HPM_P1;HPM_P2
2022/09/19 00:01:11;;;;;;;0.98;0.80;;;19.70;51.90;;;;;;4957157;28;20229;-72
2022/09/19 00:03:38;;;;;;;0.60;0.60;;;19.70;52.00;;;;;;4958762;28;20209;-72
2022/09/19 00:06:05;;;;;;;0.70;0.63;;;19.60;52.00;;;;;;4960722;28;20206;-72
2022/09/19 00:08:33;;;;;;;1.25;0.50;;;19.70;52.00;;;;;;4944742;28;20237;-72
2022/09/19 00:11:01;;;;;;;0.77;0.50;;;19.60;52.60;;;;;;4960725;28;20260;-72
2022/09/19 00:13:28;;;;;;;0.55;0.55;;;19.60;52.10;;;;;;4960611;28;20240;-72
2022/09/19 00:15:55;;;;;;;1.05;0.75;;;19.60;52.10;;;;;;4944822;28;20204;-72
2022/09/19 00:18:24;;;;;;;1.00;0.70;;;19.60;52.10;;;;;;4977886;28;20257;-72
2022/09/19 00:20:51;;;;;;;0.70;0.70;;;19.60;52.10;;;;;;4960464;28;20220;-71
2022/09/19 00:26:00;;;;;;;0.90;0.90;;;19.60;52.20;;;;;;4945671;28;20285;-71
2022/09/19 00:28:28;;;;;;;0.50;0.50;;;19.60;52.20;;;;;;4960317;28;20213;-71
2022/09/19 00:30:55;;;;;;;0.75;0.75;;;19.60;52.30;;;;;;4960346;28;20234;-72
2022/09/19 00:33:27;;;;;;;0.80;0.80;;;19.60;52.30;;;;;;4960478;28;20290;-72
2022/09/19 00:35:55;;;;;;;0.60;0.60;;;19.60;52.30;;;;;;4960185;28;20216;-72
2022/09/19 00:38:22;;;;;;;0.60;0.60;;;19.50;52.30;;;;;;4960110;28;20281;-72
2022/09/19 00:40:49;;;;;;;0.57;0.57;;;19.50;52.40;;;;;;4960156;28;20205;-72
2022/09/19 00:43:17;;;;;;;0.45;0.45;;;19.50;52.40;;;;;;4977460;28;20244;-72
2022/09/19 00:45:44;;;;;;;0.70;0.60;;;19.50;52.40;;;;;;4944261;28;20332;-72
2022/09/19 00:48:11;;;;;;;0.70;0.70;;;19.50;52.40;;;;;;4959896;28;20209;-72
2022/09/19 00:50:39;;;;;;;0.65;0.65;;;19.50;52.40;;;;;;4960225;28;20680;-72
2022/09/19 00:53:08;;;;;;;0.57;0.57;;;19.50;52.40;;;;;;4959968;28;20658;-72
2022/09/19 00:55:36;;;;;;;1.08;0.60;;;19.50;52.50;;;;;;4959981;28;20196;-72
2022/09/19 00:58:06;;;;;;;0.60;0.60;;;19.40;52.40;;;;;;4960046;28;20297;-72
2022/09/19 01:00:34;;;;;;;0.63;0.47;;;19.40;52.50;;;;;;4959689;28;20225;-72
2022/09/19 01:03:01;;;;;;;0.50;0.50;;;19.40;52.50;;;;;;4960906;28;20280;-72
2022/09/19 01:05:30;;;;;;;0.75;0.50;;;19.40;52.60;;;;;;4960489;28;20690;-72
2022/09/19 01:08:08;;;;;;;0.77;0.60;;;19.40;52.70;;;;;;4960416;28;20225;-72
2022/09/19 01:10:47;;;;;;;0.65;0.50;;;19.40;52.70;;;;;;5000216;23;20314;-65
2022/09/19 01:13:20;;;;;;;0.65;0.65;;;19.40;52.70;;;;;;4960624;28;20760;-65
2022/09/19 01:15:51;;;;;;;0.50;0.50;;;19.30;52.70;;;;;;4958319;28;20222;-64
2022/09/19 01:18:18;;;;;;;1.00;0.75;;;19.30;52.80;;;;;;4959045;28;20208;-64
2022/09/19 01:21:37;;;;;;;0.55;0.55;;;19.30;52.80;;;;;;4976220;28;20217;-64
2022/09/19 01:23:59;;;;;;;0.40;0.40;;;19.30;52.80;;;;;;4958701;28;20202;-64
2022/09/19 01:26:38;;;;;;;0.63;0.63;;;19.30;52.90;;;;;;4959220;28;20205;-64
2022/09/19 01:29:08;;;;;;;0.40;0.40;;;19.30;53.00;;;;;;4958803;28;20198;-64
2022/09/19 01:31:36;;;;;;;0.60;0.60;;;19.20;52.90;;;;;;4958745;28;20213;-65
2022/09/19 01:34:07;;;;;;;0.50;0.50;;;19.20;53.00;;;;;;4958757;28;20288;-65
2022/09/19 01:36:36;;;;;;;0.40;0.40;;;19.20;53.10;;;;;;4975949;28;20664;-65
2022/09/19 01:39:04;;;;;;;0.50;0.50;;;19.20;53.10;;;;;;4958653;28;20194;-64
2022/09/19 01:41:38;;;;;;;0.50;0.50;;;19.10;53.00;;;;;;4958802;28;20622;-64
2022/09/19 01:44:16;;;;;;;0.28;0.28;;;19.20;53.70;;;;;;4958441;28;20198;-64
2022/09/19 01:46:52;;;;;;;0.60;0.60;;;19.10;53.10;;;;;;4958512;28;20584;-64
2022/09/19 01:49:25;;;;;;;0.38;0.38;;;19.10;53.10;;;;;;4958349;28;20604;-64
2022/09/19 01:51:56;;;;;;;0.50;0.50;;;19.10;53.10;;;;;;4958363;28;20175;-64
2022/09/19 01:54:30;;;;;;;0.45;0.40;;;19.10;53.30;;;;;;4958569;28;20202;-64
2022/09/19 01:57:08;;;;;;;0.50;0.43;;;19.10;53.20;;;;;;4958479;28;20189;-64
2022/09/19 01:59:44;;;;;;;0.40;0.40;;;19.10;53.30;;;;;;4958604;28;20762;-64
2022/09/19 02:02:17;;;;;;;0.50;0.50;;;19.10;53.30;;;;;;4958158;28;20329;-64
2022/09/19 02:04:49;;;;;;;0.50;0.50;;;19.00;53.30;;;;;;4958097;28;20193;-64
2022/09/19 02:07:20;;;;;;;0.40;0.40;;;19.00;53.30;;;;;;4958112;28;20202;-64
2022/09/19 02:09:50;;;;;;;0.30;0.30;;;19.00;53.30;;;;;;4957920;28;20240;-65
2022/09/19 02:12:18;;;;;;;0.50;0.50;;;19.00;53.40;;;;;;4958077;28;20214;-64
2022/09/19 02:14:50;;;;;;;0.40;0.40;;;18.90;53.30;;;;;;4957970;28;20609;-64
2022/09/19 02:17:21;;;;;;;0.20;0.20;;;19.00;53.50;;;;;;4957933;28;20222;-64
2022/09/19 02:19:50;;;;;;;0.43;0.43;;;19.00;53.50;;;;;;4957827;28;20239;-65
2022/09/19 02:22:20;;;;;;;0.43;0.38;;;18.90;53.40;;;;;;4957757;28;20214;-64
2022/09/19 02:24:47;;;;;;;0.75;0.52;;;18.90;53.40;;;;;;4957673;28;20691;-64
2022/09/19 02:27:17;;;;;;;0.38;0.38;;;18.90;54.10;;;;;;4957544;28;20205;-64
2022/09/19 02:29:45;;;;;;;0.40;0.40;;;18.90;53.50;;;;;;4957867;28;20217;-64
2022/09/19 02:32:16;;;;;;;0.50;0.50;;;18.90;53.50;;;;;;4957712;28;20692;-65
2022/09/19 02:34:44;;;;;;;0.40;0.40;;;18.90;53.60;;;;;;4969972;28;20190;-65
2022/09/19 02:37:16;;;;;;;0.60;0.40;;;18.90;53.70;;;;;;4979395;28;20245;-65
2022/09/19 02:39:45;;;;;;;0.43;0.43;;;18.90;53.70;;;;;;4975091;28;20293;-64
2022/09/19 02:42:22;;;;;;;0.90;0.40;;;18.90;53.70;;;;;;4957579;28;20719;-64
2022/09/19 02:44:58;;;;;;;0.40;0.40;;;18.90;53.70;;;;;;4957685;28;20293;-64
2022/09/19 02:47:28;;;;;;;0.50;0.50;;;18.90;53.70;;;;;;4957640;28;20224;-65
2022/09/19 02:49:59;;;;;;;0.30;0.30;;;18.80;54.20;;;;;;4957827;28;20214;-65
2022/09/19 02:52:28;;;;;;;0.65;0.40;;;18.80;53.60;;;;;;4957655;28;20286;-65
2022/09/19 02:54:56;;;;;;;0.20;0.20;;;18.80;53.70;;;;;;4957403;28;20204;-64
2022/09/19 02:57:23;;;;;;;0.40;0.40;;;18.80;53.70;;;;;;4957643;28;20214;-65
2022/09/19 02:59:50;;;;;;;0.77;0.30;;;18.80;53.70;;;;;;4957448;28;20210;-65
2022/09/19 03:02:20;;;;;;;0.47;0.47;;;18.80;53.70;;;;;;4957204;28;20214;-64
2022/09/19 03:04:51;;;;;;;0.40;0.40;;;18.70;53.50;;;;;;4957560;28;20206;-66
2022/09/19 03:07:25;;;;;;;0.22;0.22;;;18.80;53.70;;;;;;4957525;28;20194;-66
2022/09/19 03:10:03;;;;;;;0.63;0.40;;;18.80;53.60;;;;;;4957579;28;20256;-65
2022/09/19 03:12:39;;;;;;;0.20;0.20;;;18.80;53.60;;;;;;4957358;28;20709;-64
2022/09/19 03:15:08;;;;;;;0.30;0.30;;;18.80;53.60;;;;;;4957033;28;20198;-65
2022/09/19 03:17:39;;;;;;;0.55;0.43;;;18.80;53.60;;;;;;4957665;28;20613;-64
2022/09/19 03:20:11;;;;;;;0.22;0.22;;;18.80;53.60;;;;;;4957070;28;20592;-65
2022/09/19 03:22:41;;;;;;;0.63;0.40;;;18.80;53.60;;;;;;4957041;28;20304;-66
2022/09/19 03:25:09;;;;;;;0.70;0.40;;;18.80;53.60;;;;;;4957187;28;20206;-64
2022/09/19 03:27:37;;;;;;;0.57;0.30;;;18.80;53.60;;;;;;4957162;28;20225;-65
2022/09/19 03:30:07;;;;;;;0.45;0.40;;;18.90;53.70;;;;;;4974431;28;20210;-64
2022/09/19 03:32:35;;;;;;;0.30;0.30;;;18.90;53.50;;;;;;4957127;28;20190;-65
2022/09/19 03:35:04;;;;;;;0.47;0.43;;;18.90;53.40;;;;;;4956999;28;20205;-65
2022/09/19 03:37:34;;;;;;;0.30;0.30;;;19.00;53.30;;;;;;4956848;28;20228;-64
2022/09/19 03:40:02;;;;;;;0.35;0.35;;;19.10;53.30;;;;;;4959909;28;20402;-64
2022/09/19 03:42:31;;;;;;;0.38;0.38;;;19.10;53.20;;;;;;4960631;28;20596;-64
2022/09/19 03:44:58;;;;;;;0.30;0.30;;;19.10;53.10;;;;;;4978027;28;20260;-64
2022/09/19 03:47:26;;;;;;;0.40;0.40;;;19.20;53.70;;;;;;4960703;28;20582;-64
2022/09/19 03:49:53;;;;;;;0.40;0.40;;;19.20;53.00;;;;;;4960439;28;20253;-64
2022/09/19 03:52:20;;;;;;;0.70;0.50;;;19.20;52.90;;;;;;4960764;28;20210;-64
2022/09/19 03:54:49;;;;;;;0.40;0.40;;;19.20;52.80;;;;;;4960568;28;20213;-64
2022/09/19 03:57:16;;;;;;;0.47;0.47;;;19.20;52.70;;;;;;4960441;28;20284;-64
2022/09/19 03:59:42;;;;;;;0.98;0.40;;;19.20;52.70;;;;;;4960383;28;20242;-64
2022/09/19 04:02:11;;;;;;;0.30;0.30;;;19.20;52.70;;;;;;4960542;28;20672;-66
2022/09/19 04:04:38;;;;;;;0.40;0.30;;;19.30;52.70;;;;;;4960551;28;20292;-66
2022/09/19 04:07:06;;;;;;;0.68;0.45;;;19.30;52.70;;;;;;4960459;28;20605;-66
2022/09/19 04:09:34;;;;;;;0.57;0.40;;;19.30;52.70;;;;;;4960171;28;20241;-66
2022/09/19 04:12:04;;;;;;;0.65;0.57;;;19.30;52.70;;;;;;4960218;28;20206;-66
2022/09/19 04:14:34;;;;;;;0.70;0.40;;;19.30;52.50;;;;;;4960328;28;20661;-66
2022/09/19 04:17:01;;;;;;;0.75;0.60;;;19.30;52.00;;;;;;4977686;28;20190;-66
2022/09/19 04:19:29;;;;;;;1.13;0.63;;;19.30;51.70;;;;;;4960518;28;20641;-66
2022/09/19 04:22:22;;;;;;;2.05;0.70;;;19.30;51.80;;;;;;4964621;28;20620;-65
2022/09/19 04:25:13;;;;;;;1.88;0.95;;;19.30;51.90;;;;;;4969876;28;20206;-66
2022/09/19 04:28:03;;;;;;;1.00;0.90;;;19.30;52.10;;;;;;4960003;28;20209;-66
2022/09/19 04:30:32;;;;;;;0.40;0.40;;;19.30;52.10;;;;;;4961047;28;20214;-66
2022/09/19 04:33:02;;;;;;;1.10;0.77;;;19.30;52.00;;;;;;4960210;28;20198;-66
2022/09/19 04:35:35;;;;;;;0.93;0.70;;;19.30;52.20;;;;;;4960139;28;20676;-66
2022/09/19 04:38:04;;;;;;;2.08;0.85;;;19.30;52.00;;;;;;4959760;28;20217;-66
2022/09/19 04:40:31;;;;;;;2.85;1.10;;;19.30;52.30;;;;;;4959877;28;20248;-66
2022/09/19 04:42:58;;;;;;;1.42;0.65;;;19.30;51.80;;;;;;4959546;28;20218;-66
2022/09/19 04:45:28;;;;;;;0.73;0.68;;;19.30;51.80;;;;;;4959681;28;20261;-66
2022/09/19 04:48:04;;;;;;;1.15;0.80;;;19.30;52.00;;;;;;4960112;28;20193;-66
2022/09/19 04:50:32;;;;;;;1.75;1.00;;;19.40;52.10;;;;;;4959674;28;20218;-66
2022/09/19 04:53:01;;;;;;;1.23;0.80;;;19.40;52.60;;;;;;4959425;28;20194;-66
2022/09/19 04:55:28;;;;;;;1.98;0.80;;;19.30;52.80;;;;;;4959824;28;20194;-66
2022/09/19 04:57:56;;;;;;;1.38;0.80;;;19.40;52.80;;;;;;4959395;28;20198;-67
2022/09/19 05:03:17;;;;;;;1.33;0.75;;;19.30;52.50;;;;;;5091436;27;20958;-56
2022/09/19 05:05:50;;;;;;;3.00;1.00;;;19.30;52.50;;;;;;5090397;28;20198;-55
2022/09/19 05:08:25;;;;;;;3.13;0.93;;;19.30;52.30;;;;;;5089515;28;20227;-55
2022/09/19 05:10:55;;;;;;;2.47;0.80;;;19.30;52.10;;;;;;5089393;28;20218;-56
2022/09/19 05:13:23;;;;;;;2.90;1.00;;;19.30;52.20;;;;;;5089257;28;20251;-56
2022/09/19 05:15:52;;;;;;;0.95;0.70;;;19.30;52.30;;;;;;5090060;28;20252;-55
2022/09/19 05:18:23;;;;;;;1.58;0.88;;;19.30;52.30;;;;;;5089062;28;20221;-55
2022/09/19 05:20:54;;;;;;;2.20;1.02;;;19.20;52.20;;;;;;5089207;28;20536;-55
2022/09/19 05:23:22;;;;;;;1.60;0.88;;;19.20;52.30;;;;;;5089009;28;20574;-55
2022/09/19 05:25:53;;;;;;;1.80;0.82;;;19.20;52.30;;;;;;5089008;28;20191;-55
2022/09/19 05:28:21;;;;;;;1.35;0.80;;;19.10;52.30;;;;;;5088936;28;20193;-56
2022/09/19 05:30:54;;;;;;;1.05;0.63;;;19.10;52.50;;;;;;5088956;28;20190;-55
2022/09/19 05:33:26;;;;;;;1.38;0.90;;;19.10;52.30;;;;;;5088910;28;20676;-56
2022/09/19 05:35:53;;;;;;;1.35;0.90;;;19.20;52.00;;;;;;5088967;28;20213;-55
2022/09/19 05:38:40;;;;;;;3.03;0.90;;;19.10;51.80;;;;;;5097801;22;20214;-66
2022/09/19 05:41:42;;;;;;;1.00;0.70;;;19.10;52.00;;;;;;4988557;28;20217;-66
2022/09/19 05:44:22;;;;;;;2.08;1.00;;;19.20;52.00;;;;;;5004539;28;20568;-67
2022/09/19 05:46:59;;;;;;;1.80;0.93;;;19.20;51.70;;;;;;5025513;28;20284;-66
2022/09/19 05:49:28;;;;;;;1.95;0.90;;;19.30;51.40;;;;;;5008932;28;20224;-66
2022/09/19 05:51:55;;;;;;;2.33;1.00;;;19.30;51.40;;;;;;5009102;28;20196;-66
2022/09/19 05:54:24;;;;;;;1.38;0.82;;;19.30;51.30;;;;;;5025322;28;20696;-67
2022/09/19 05:57:11;;;;;;;3.53;1.25;;;19.30;51.20;;;;;;5010358;28;20247;-67
2022/09/19 05:59:38;;;;;;;2.45;1.00;;;19.30;51.20;;;;;;5026316;28;20241;-67
2022/09/19 06:02:08;;;;;;;1.63;1.02;;;19.30;51.10;;;;;;5008795;28;20221;-67
2022/09/19 06:04:45;;;;;;;1.30;0.82;;;19.30;51.10;;;;;;5025140;28;20670;-66
2022/09/19 06:07:13;;;;;;;2.05;0.90;;;19.30;51.10;;;;;;5025153;28;20669;-67
2022/09/19 06:09:42;;;;;;;1.67;0.88;;;19.30;51.10;;;;;;5008570;28;20221;-67
2022/09/19 06:12:09;;;;;;;1.83;0.93;;;19.30;51.00;;;;;;5008614;28;20244;-67
2022/09/19 06:14:38;;;;;;;1.40;0.95;;;19.30;50.90;;;;;;4995500;28;20193;-67
2022/09/19 06:17:08;;;;;;;1.92;1.08;;;19.30;50.90;;;;;;4995550;28;20205;-67
2022/09/19 06:19:49;;;;;;;1.45;1.08;;;19.30;50.70;;;;;;5012403;28;20225;-66
2022/09/19 06:22:35;;;;;;;2.20;0.95;;;19.30;50.70;;;;;;5011857;28;20213;-66
2022/09/19 06:25:03;;;;;;;2.53;1.13;;;19.40;50.70;;;;;;5011744;28;20204;-67
2022/09/19 06:27:31;;;;;;;1.60;1.00;;;19.40;50.70;;;;;;5011971;28;20251;-67
2022/09/19 06:29:59;;;;;;;1.30;1.08;;;19.40;50.60;;;;;;5011482;28;20224;-67
2022/09/19 06:32:38;;;;;;;1.95;1.00;;;19.40;50.60;;;;;;4995313;28;20192;-66
2022/09/19 06:35:20;;;;;;;2.08;1.00;;;19.40;50.50;;;;;;5011559;28;20189;-67
2022/09/19 06:37:47;;;;;;;2.60;1.20;;;19.50;50.50;;;;;;4996396;28;20192;-67
2022/09/19 06:40:17;;;;;;;2.33;0.93;;;19.50;50.40;;;;;;4996080;28;20217;-66
2022/09/19 06:42:57;;;;;;;1.95;1.02;;;19.50;50.30;;;;;;5011789;28;20209;-66
2022/09/19 06:45:56;;;;;;;1.80;0.95;;;19.50;50.30;;;;;;4984489;28;20193;-67
2022/09/19 06:48:43;;;;;;;2.42;1.25;;;19.50;50.10;;;;;;4995155;28;20232;-67
2022/09/19 06:51:30;;;;;;;2.00;1.20;;;19.60;50.10;;;;;;4996392;28;20185;-67
2022/09/19 06:53:57;;;;;;;2.10;0.93;;;19.60;49.90;;;;;;5011043;28;20221;-66
2022/09/19 06:56:25;;;;;;;1.70;1.10;;;19.60;49.90;;;;;;5011133;28;20293;-66
2022/09/19 06:58:53;;;;;;;2.35;1.00;;;19.60;49.90;;;;;;4994816;28;20224;-66
2022/09/19 07:01:20;;;;;;;2.50;1.27;;;19.70;50.00;;;;;;4995854;28;20710;-66
2022/09/19 07:03:48;;;;;;;2.03;1.10;;;19.70;50.00;;;;;;4994516;28;20600;-66
2022/09/19 07:06:20;;;;;;;1.73;1.05;;;19.70;49.90;;;;;;4995167;28;20614;-67
2022/09/19 07:09:07;;;;;;;2.83;1.20;;;19.80;49.80;;;;;;4994431;28;20208;-67
2022/09/19 07:11:35;;;;;;;3.13;1.40;;;19.80;49.70;;;;;;5011022;28;20572;-66
2022/09/19 07:14:03;;;;;;;2.40;1.13;;;19.80;49.60;;;;;;5010747;28;20296;-66
2022/09/19 07:16:30;;;;;;;2.00;1.30;;;19.80;49.60;;;;;;4995671;28;20202;-66
2022/09/19 07:18:58;;;;;;;3.25;1.13;;;19.80;49.60;;;;;;5011268;28;20225;-66
2022/09/19 07:21:38;;;;;;;2.08;1.00;;;19.80;49.50;;;;;;5010925;28;20217;-66
2022/09/19 07:24:11;;;;;;;1.40;0.93;;;19.80;49.50;;;;;;5010328;28;20197;-67
2022/09/19 07:26:57;;;;;;;3.30;1.05;;;19.80;49.40;;;;;;5010663;28;20198;-66
2022/09/19 07:29:25;;;;;;;2.83;1.20;;;19.80;49.50;;;;;;5010438;28;20221;-67
2022/09/19 07:31:52;;;;;;;2.13;1.27;;;19.80;49.40;;;;;;5010429;28;20198;-66
2022/09/19 07:34:19;;;;;;;2.75;1.20;;;19.80;49.40;;;;;;5010535;28;20193;-67
2022/09/19 07:36:52;;;;;;;3.05;1.25;;;19.80;49.40;;;;;;5010884;28;20276;-66
2022/09/19 07:39:20;;;;;;;2.20;1.20;;;19.80;49.40;;;;;;4993723;28;20212;-66
2022/09/19 07:42:10;;;;;;;1.60;1.10;;;19.90;49.40;;;;;;4999771;28;20221;-67
2022/09/19 07:44:38;;;;;;;1.85;1.23;;;19.90;49.20;;;;;;4995235;28;20233;-67
2022/09/19 07:47:28;;;;;;;2.17;1.13;;;19.90;49.10;;;;;;4994551;28;20765;-67
2022/09/19 07:50:05;;;;;;;3.35;1.45;;;19.90;49.20;;;;;;5010154;28;20221;-67
2022/09/19 07:52:41;;;;;;;2.63;1.10;;;19.90;49.20;;;;;;4993629;28;20185;-67
2022/09/19 07:55:13;;;;;;;2.67;1.20;;;19.90;49.20;;;;;;4993889;28;20189;-66
2022/09/19 07:57:49;;;;;;;2.42;1.40;;;20.00;49.10;;;;;;5009934;28;20207;-67
2022/09/19 08:00:17;;;;;;;2.38;1.20;;;20.00;49.10;;;;;;4993517;28;20217;-67
2022/09/19 08:02:58;;;;;;;1.77;1.20;;;20.00;48.90;;;;;;5010360;28;20260;-67
2022/09/19 08:05:26;;;;;;;2.00;1.20;;;20.00;48.90;;;;;;5009826;28;20197;-66
2022/09/19 08:07:53;;;;;;;3.35;1.23;;;20.00;48.90;;;;;;5009701;28;20579;-66
2022/09/19 08:10:22;;;;;;;2.22;1.23;;;20.10;48.90;;;;;;5009562;28;20305;-67
2022/09/19 08:12:50;;;;;;;1.88;1.20;;;20.10;48.80;;;;;;5009648;28;20284;-67
2022/09/19 08:15:19;;;;;;;2.50;1.27;;;20.10;48.70;;;;;;4993356;28;20759;-66
2022/09/19 08:17:55;;;;;;;2.35;1.30;;;20.10;48.60;;;;;;5009668;28;20194;-67
2022/09/19 08:20:23;;;;;;;2.45;1.17;;;20.10;48.60;;;;;;5009433;28;20272;-67
2022/09/19 08:22:50;;;;;;;2.90;1.13;;;20.10;48.60;;;;;;5009407;28;20577;-66
2022/09/19 08:25:17;;;;;;;2.80;1.58;;;20.20;48.60;;;;;;4993071;28;20197;-66
2022/09/19 08:27:46;;;;;;;1.73;1.02;;;20.10;48.50;;;;;;5009420;28;20248;-66
2022/09/19 08:30:13;;;;;;;2.08;1.25;;;20.20;48.50;;;;;;4992916;28;20244;-67
2022/09/19 08:32:44;;;;;;;3.55;1.60;;;20.20;48.60;;;;;;4992886;28;20292;-67
2022/09/19 08:35:12;;;;;;;2.55;1.48;;;20.10;48.50;;;;;;5009391;28;20185;-66
2022/09/19 08:37:39;;;;;;;2.85;1.40;;;20.20;48.50;;;;;;5008998;28;20280;-67
2022/09/19 08:40:21;;;;;;;2.17;1.48;;;20.20;48.50;;;;;;5009137;28;20225;-67
2022/09/19 08:42:57;;;;;;;2.33;1.17;;;20.20;48.50;;;;;;4992799;28;20209;-67
2022/09/19 08:45:32;;;;;;;2.72;1.55;;;20.20;48.40;;;;;;5009300;28;20189;-66
2022/09/19 08:47:59;;;;;;;3.28;1.40;;;20.20;48.30;;;;;;5009729;28;20268;-67
2022/09/19 08:50:30;;;;;;;1.85;1.00;;;20.20;48.30;;;;;;5009175;28;20259;-67
2022/09/19 08:53:01;;;;;;;3.10;1.50;;;20.20;48.30;;;;;;4992778;28;20680;-66
2022/09/19 08:55:32;;;;;;;5.45;1.48;;;20.20;48.40;;;;;;5009189;28;20709;-67
2022/09/19 08:58:03;;;;;;;2.50;1.30;;;20.20;48.40;;;;;;5009045;28;20201;-67
2022/09/19 09:00:57;;;;;;;2.65;1.50;;;20.20;48.40;;;;;;4993944;28;20217;-66
2022/09/19 09:03:30;;;;;;;2.45;1.30;;;20.20;48.40;;;;;;5009069;28;20213;-67
2022/09/19 09:06:11;;;;;;;2.42;1.23;;;20.20;48.40;;;;;;5008965;28;20204;-66
2022/09/19 09:08:44;;;;;;;2.92;1.30;;;20.20;49.00;;;;;;5009133;28;20284;-67
2022/09/19 09:11:15;;;;;;;3.58;1.30;;;20.20;48.50;;;;;;4993847;28;20221;-67
2022/09/19 09:13:48;;;;;;;3.45;1.30;;;20.30;48.60;;;;;;5008977;28;20185;-66
2022/09/19 09:16:18;;;;;;;2.95;1.30;;;20.30;48.60;;;;;;5008937;28;20567;-67
2022/09/19 09:18:58;;;;;;;2.53;1.40;;;20.30;48.60;;;;;;5008893;28;20570;-66
2022/09/19 09:21:29;;;;;;;2.47;1.30;;;20.30;49.20;;;;;;5008883;28;20201;-67
2022/09/19 09:23:59;;;;;;;2.40;1.20;;;20.30;48.50;;;;;;5008928;28;20702;-66
2022/09/19 09:26:40;;;;;;;3.15;1.45;;;20.30;48.60;;;;;;4992689;28;20567;-66
2022/09/19 09:29:14;;;;;;;2.72;1.13;;;20.30;48.60;;;;;;5008820;28;20296;-67
2022/09/19 09:31:51;;;;;;;2.38;1.23;;;20.30;49.20;;;;;;5008817;28;20285;-67
2022/09/19 09:34:31;;;;;;;1.98;1.27;;;20.20;48.50;;;;;;5008838;28;20196;-67
2022/09/19 09:36:59;;;;;;;3.22;1.30;;;20.30;48.60;;;;;;4993950;28;20276;-66
2022/09/19 09:39:39;;;;;;;3.85;1.38;;;20.30;48.60;;;;;;5008787;28;20749;-66
2022/09/19 09:42:07;;;;;;;2.20;1.50;;;20.30;48.50;;;;;;5008771;28;20193;-67
2022/09/19 09:44:58;;;;;;;4.32;1.25;;;20.40;48.40;;;;;;5008726;28;20214;-66
2022/09/19 09:47:41;;;;;;;2.90;1.15;;;20.50;48.40;;;;;;4992351;28;20224;-66
2022/09/19 09:50:25;;;;;;;3.00;1.20;;;20.50;48.30;;;;;;5012559;28;20221;-67
2022/09/19 09:52:55;;;;;;;1.83;1.02;;;20.50;48.20;;;;;;5013326;28;20193;-67
2022/09/19 09:58:26;;;;;;;2.60;1.30;;;20.50;48.30;;;;;;5013427;28;20576;-66
2022/09/19 10:03:49;;;;;;;3.58;1.80;;;20.50;48.20;;;;;;5012345;28;20209;-67
2022/09/19 10:06:32;;;;;;;2.47;1.40;;;20.50;48.20;;;;;;5012070;28;20185;-67
2022/09/19 10:09:03;;;;;;;1.80;1.13;;;20.50;48.20;;;;;;4997062;28;20193;-67
2022/09/19 10:11:35;;;;;;;2.30;1.40;;;20.50;48.20;;;;;;4997213;28;20192;-66
2022/09/19 10:14:04;;;;;;;2.20;1.40;;;20.50;48.20;;;;;;4995611;28;20182;-67
2022/09/19 10:16:36;;;;;;;3.45;1.30;;;20.50;48.20;;;;;;5011980;28;20196;-67
2022/09/19 10:19:15;;;;;;;3.05;1.15;;;20.50;48.30;;;;;;5013487;28;20259;-66
2022/09/19 10:21:42;;;;;;;2.20;1.10;;;20.60;48.30;;;;;;5012378;28;20189;-67
2022/09/19 10:24:45;;;;;;;2.65;1.40;;;20.60;48.10;;;;;;5011665;28;20217;-67
2022/09/19 10:27:19;;;;;;;2.05;1.20;;;20.70;48.10;;;;;;4995368;28;20200;-67
2022/09/19 10:29:58;;;;;;;2.63;1.17;;;20.70;47.90;;;;;;5012105;28;20666;-67
2022/09/19 10:32:27;;;;;;;4.03;1.40;;;20.70;47.80;;;;;;4995227;28;20255;-66
2022/09/19 10:35:21;;;;;;;2.50;1.38;;;20.70;47.80;;;;;;4996558;28;20186;-67
2022/09/19 10:37:52;;;;;;;1.83;1.20;;;20.70;47.70;;;;;;5011450;28;20248;-67
2022/09/19 10:40:20;;;;;;;2.30;1.30;;;20.70;47.80;;;;;;4995173;28;20635;-67
2022/09/19 10:42:48;;;;;;;2.42;1.10;;;20.80;47.90;;;;;;4994846;28;20204;-67
2022/09/19 10:45:26;;;;;;;1.73;1.05;;;20.80;47.90;;;;;;4995080;28;20193;-67
2022/09/19 10:47:57;;;;;;;2.58;1.50;;;20.80;47.80;;;;;;5011252;28;20217;-67
2022/09/19 10:50:25;;;;;;;1.50;1.15;;;20.80;47.70;;;;;;5011783;28;20213;-67
2022/09/19 10:53:02;;;;;;;2.00;1.10;;;20.90;47.80;;;;;;4994854;28;20252;-67
2022/09/19 10:55:33;;;;;;;1.98;1.10;;;20.90;47.60;;;;;;4995776;28;20655;-66
2022/09/19 10:58:04;;;;;;;1.73;1.33;;;20.90;47.60;;;;;;5011467;28;20200;-67
2022/09/19 11:00:48;;;;;;;1.10;1.00;;;20.90;47.60;;;;;;4994572;28;20217;-67
2022/09/19 11:03:23;;;;;;;1.60;1.10;;;21.00;47.60;;;;;;5011208;28;20745;-67
2022/09/19 11:06:06;;;;;;;1.77;1.15;;;21.00;47.50;;;;;;4994542;28;20194;-67
2022/09/19 11:08:44;;;;;;;3.42;1.48;;;21.00;47.40;;;;;;5010890;28;20197;-66
2022/09/19 11:11:22;;;;;;;2.50;1.30;;;21.10;47.40;;;;;;5010940;28;20236;-67
2022/09/19 11:14:06;;;;;;;2.03;1.13;;;21.10;47.30;;;;;;5010723;28;20197;-67
2022/09/19 11:16:37;;;;;;;2.20;1.40;;;21.20;47.30;;;;;;5011658;28;20197;-67
2022/09/19 11:19:16;;;;;;;2.70;1.20;;;21.20;47.20;;;;;;5010787;28;20276;-67
2022/09/19 11:21:50;;;;;;;1.80;1.10;;;21.20;47.10;;;;;;4994472;28;20223;-67
2022/09/19 11:24:31;;;;;;;1.75;1.10;;;21.20;47.10;;;;;;5010559;28;20765;-67
2022/09/19 11:27:07;;;;;;;1.40;1.08;;;21.20;47.10;;;;;;4995482;28;20604;-67
2022/09/19 11:29:49;;;;;;;1.73;1.02;;;21.20;47.10;;;;;;4994117;28;20263;-67
2022/09/19 11:32:30;;;;;;;2.15;1.33;;;21.20;47.20;;;;;;5010823;28;20232;-67
2022/09/19 11:35:01;;;;;;;2.47;1.23;;;21.20;47.20;;;;;;4994056;28;20619;-67
2022/09/19 11:37:41;;;;;;;1.63;1.00;;;21.20;47.20;;;;;;4994076;28;20193;-67
2022/09/19 11:40:20;;;;;;;2.33;1.20;;;21.20;47.20;;;;;;5010307;28;20353;-67
2022/09/19 11:42:51;;;;;;;1.77;1.20;;;21.20;47.80;;;;;;5010275;28;20208;-68
2022/09/19 11:45:19;;;;;;;1.48;1.20;;;21.20;47.30;;;;;;4993997;28;20189;-67
2022/09/19 11:48:07;;;;;;;2.20;1.15;;;21.20;47.20;;;;;;5010238;28;20698;-67
2022/09/19 11:50:48;;;;;;;3.90;1.10;;;21.20;47.20;;;;;;5010691;28;20217;-67
2022/09/19 11:53:38;;;;;;;1.90;1.20;;;21.20;47.30;;;;;;4994897;28;20204;-67
2022/09/19 11:56:35;;;;;;;1.70;1.10;;;21.20;47.20;;;;;;4995065;28;20205;-67
2022/09/19 11:59:07;;;;;;;1.50;1.00;;;21.20;47.10;;;;;;4995789;28;20186;-67
2022/09/19 12:01:38;;;;;;;2.08;1.15;;;21.20;47.10;;;;;;4995870;28;20181;-67
2022/09/19 12:04:18;;;;;;;1.60;1.08;;;21.20;47.20;;;;;;5010112;28;20320;-68
2022/09/19 12:07:03;;;;;;;1.60;1.00;;;21.20;47.20;;;;;;4993573;28;20190;-67
2022/09/19 12:09:32;;;;;;;2.50;1.20;;;21.20;47.10;;;;;;5010182;28;20304;-67
2022/09/19 12:12:02;;;;;;;1.52;1.00;;;21.20;47.10;;;;;;5010450;28;20228;-68
2022/09/19 12:14:39;;;;;;;3.00;1.20;;;21.20;47.10;;;;;;5011415;28;20199;-67
2022/09/19 12:17:13;;;;;;;2.03;1.20;;;21.20;47.20;;;;;;5010036;28;20203;-68
2022/09/19 12:19:44;;;;;;;1.48;1.10;;;21.20;47.10;;;;;;5010765;28;20236;-67
2022/09/19 12:22:14;;;;;;;2.15;1.00;;;21.20;47.10;;;;;;4993297;28;20575;-67
2022/09/19 12:24:55;;;;;;;2.00;1.33;;;21.20;47.10;;;;;;4993502;28;20205;-67
2022/09/19 12:27:31;;;;;;;2.97;1.38;;;21.20;47.10;;;;;;5009583;28;20213;-66
2022/09/19 12:30:05;;;;;;;2.08;1.13;;;21.20;47.10;;;;;;5009500;28;20222;-67
2022/09/19 12:32:38;;;;;;;2.78;1.40;;;21.20;47.10;;;;;;5009572;28;20208;-67
2022/09/19 12:35:09;;;;;;;1.95;1.17;;;21.30;47.20;;;;;;5010067;28;20197;-67
2022/09/19 12:37:40;;;;;;;1.10;1.00;;;21.30;47.20;;;;;;5009345;28;20197;-67
2022/09/19 12:40:17;;;;;;;1.25;1.02;;;21.30;47.20;;;;;;5009497;28;20279;-67
2022/09/19 12:42:47;;;;;;;1.77;0.90;;;21.30;47.20;;;;;;5009270;28;20224;-67
2022/09/19 12:45:17;;;;;;;1.35;0.90;;;21.30;47.20;;;;;;5009177;28;20202;-67
2022/09/19 12:48:02;;;;;;;2.15;1.10;;;21.40;47.20;;;;;;5009789;28;20228;-67
2022/09/19 12:50:43;;;;;;;1.58;0.98;;;21.30;47.10;;;;;;5009238;28;20276;-67
2022/09/19 12:53:25;;;;;;;1.13;1.02;;;21.40;47.10;;;;;;5009141;28;20664;-67
2022/09/19 12:55:57;;;;;;;1.85;1.00;;;21.30;47.00;;;;;;5009171;28;20193;-67
2022/09/19 12:58:26;;;;;;;1.63;1.00;;;21.40;47.10;;;;;;5009153;28;20252;-67
2022/09/19 13:01:08;;;;;;;3.45;1.20;;;21.30;47.10;;;;;;4994097;28;20213;-67
2022/09/19 13:03:37;;;;;;;1.23;0.90;;;21.30;47.20;;;;;;4992635;28;20214;-67
2022/09/19 13:06:06;;;;;;;1.33;1.00;;;21.30;47.20;;;;;;4992599;28;20221;-67
2022/09/19 13:08:36;;;;;;;1.45;1.20;;;21.30;47.30;;;;;;4993838;28;20248;-66
2022/09/19 13:13:32;;;;;;;1.67;0.80;;;21.30;47.30;;;;;;5012237;28;20554;-55
2022/09/19 13:16:00;;;;;;;1.73;1.10;;;21.30;47.40;;;;;;5013250;28;20193;-55
2022/09/19 13:24:02;;;;;;;1.88;1.17;;;21.30;48.00;;;;;;5014007;28;20221;-55
2022/09/19 13:26:34;;;;;;;1.75;0.98;;;21.30;47.40;;;;;;5017186;28;20217;-54
2022/09/19 13:29:03;;;;;;;2.85;0.90;;;21.30;47.30;;;;;;5017634;28;20223;-55
2022/09/19 13:31:44;;;;;;;1.65;1.00;;;21.40;47.40;;;;;;5017067;28;20672;-54
2022/09/19 13:34:38;;;;;;;1.63;0.80;;;21.40;47.30;;;;;;5015925;28;20224;-55
2022/09/19 13:37:53;;;;;;;1.45;0.90;;;21.40;47.30;;;;;;5017509;28;20181;-55